首页
METAR-TAF:

METAR-TAF

机场 :

曼彻斯特机场

曼彻斯特, 英格兰

纬度: 53-21N, 经度: 002-17W, 海拔: 69米

当前天气观测

该预报发布于17分钟前的16:20 UTC
风速8节,风向西
温度 12°C
湿度 82%
气压 997 hPa
能见度10公里或以上
小雨

METAR: EGCC 231620Z AUTO 27008KT 9999 -RA BKN020/// OVC040/// //////CB 12/09 Q0997 NOSIG

时间: 17:37 (16:37 UTC)

预报

该预报发布于5小时和33分钟前的11:04 UTC
预报有效从23日的 12点(UTC)到 24日的 18点(UTC)
风速7节,风向西转西北
能见度10公里或以上
多云层高于3000英尺
几率 30% :
短暂存在
从 23日的 12点(UTC)到 23日的 23点(UTC)
能見度: 4000
多云层高于600英尺
阵雨
成为
从 24日的 06点(UTC)到 24日的 09点(UTC)
风速12节,风向
短暂存在
从 24日的 06点(UTC)到 24日的 12点(UTC)
能見度: 6000
多云层高于1200英尺
几率 30% :
短暂存在
从 24日的 12点(UTC)到 24日的 18点(UTC)
能見度: 6000
阵雨

TAF: EGCC 231104Z 2312/2418 30007KT 9999 BKN030 PROB30 TEMPO 2312/2323 4000 SHRA BKN006 BECMG 2406/2409 18012KT TEMPO 2406/2412 6000 RA BKN012 PROB30 TEMPO 2412/2418 6000 SHRA

超过4000个机场的气象观测和天气预报(METAR&TAF报告)。

可查询的气象台以黄色和红色小点在地图上表示。

将鼠标移到小点上方,可查看气象台名称。

然后点击查看天气观测和预报。

如需切换地图:点击带黑十字的绿色按钮放大地图;点击带横线的绿色按钮缩小地图;或者点击绿色箭头查看邻近地区的地图。


METAR-TAF: